sensor_id;sensor_type;location;lat;lon;timestamp;P1;durP1;ratioP1;P2;durP2;ratioP2
3054;SDS011;1537;52.018;8.542;2022-11-03T00:00:30;11.60;;;2.90;;
3054;SDS011;1537;52.018;8.542;2022-11-03T00:03:54;9.13;;;3.43;;
3054;SDS011;1537;52.018;8.542;2022-11-03T00:07:20;9.77;;;2.93;;
3054;SDS011;1537;52.018;8.542;2022-11-03T00:10:46;8.70;;;2.93;;
3054;SDS011;1537;52.018;8.542;2022-11-03T00:14:10;7.10;;;3.00;;
3054;SDS011;1537;52.018;8.542;2022-11-03T00:17:35;8.63;;;2.90;;
3054;SDS011;1537;52.018;8.542;2022-11-03T00:21:00;10.27;;;2.47;;
3054;SDS011;1537;52.018;8.542;2022-11-03T00:24:28;9.13;;;2.97;;
3054;SDS011;1537;52.018;8.542;2022-11-03T00:27:53;7.07;;;3.10;;
3054;SDS011;1537;52.018;8.542;2022-11-03T00:31:18;12.37;;;3.10;;
3054;SDS011;1537;52.018;8.542;2022-11-03T00:34:44;11.20;;;3.20;;
3054;SDS011;1537;52.018;8.542;2022-11-03T00:38:10;8.20;;;2.60;;
3054;SDS011;1537;52.018;8.542;2022-11-03T00:41:35;8.27;;;3.20;;
3054;SDS011;1537;52.018;8.542;2022-11-03T00:44:58;9.50;;;3.73;;
3054;SDS011;1537;52.018;8.542;2022-11-03T00:48:22;7.03;;;3.20;;
3054;SDS011;1537;52.018;8.542;2022-11-03T00:51:53;12.53;;;3.77;;
3054;SDS011;1537;52.018;8.542;2022-11-03T00:55:17;7.60;;;2.47;;
3054;SDS011;1537;52.018;8.542;2022-11-03T00:58:42;7.17;;;3.17;;
3054;SDS011;1537;52.018;8.542;2022-11-03T01:02:06;7.20;;;3.43;;
3054;SDS011;1537;52.018;8.542;2022-11-03T01:05:30;8.03;;;2.50;;
3054;SDS011;1537;52.018;8.542;2022-11-03T01:09:11;8.30;;;2.60;;
3054;SDS011;1537;52.018;8.542;2022-11-03T01:12:35;8.00;;;3.57;;
3054;SDS011;1537;52.018;8.542;2022-11-03T01:16:00;6.73;;;2.67;;
3054;SDS011;1537;52.018;8.542;2022-11-03T01:19:23;9.63;;;3.03;;
3054;SDS011;1537;52.018;8.542;2022-11-03T01:22:47;6.00;;;2.50;;
3054;SDS011;1537;52.018;8.542;2022-11-03T01:26:11;10.33;;;3.20;;
3054;SDS011;1537;52.018;8.542;2022-11-03T01:29:36;7.40;;;2.80;;
3054;SDS011;1537;52.018;8.542;2022-11-03T01:33:01;7.63;;;2.70;;
3054;SDS011;1537;52.018;8.542;2022-11-03T01:36:25;9.57;;;3.70;;
3054;SDS011;1537;52.018;8.542;2022-11-03T01:39:49;11.60;;;3.17;;
3054;SDS011;1537;52.018;8.542;2022-11-03T01:43:13;13.90;;;3.87;;
3054;SDS011;1537;52.018;8.542;2022-11-03T01:46:38;7.37;;;3.40;;
3054;SDS011;1537;52.018;8.542;2022-11-03T01:50:06;10.10;;;4.27;;
3054;SDS011;1537;52.018;8.542;2022-11-03T01:53:34;9.63;;;3.07;;
3054;SDS011;1537;52.018;8.542;2022-11-03T01:57:03;12.50;;;3.57;;
3054;SDS011;1537;52.018;8.542;2022-11-03T02:00:30;13.93;;;3.20;;
3054;SDS011;1537;52.018;8.542;2022-11-03T02:03:54;5.40;;;3.20;;
3054;SDS011;1537;52.018;8.542;2022-11-03T02:07:26;6.70;;;3.10;;
3054;SDS011;1537;52.018;8.542;2022-11-03T02:10:54;4.80;;;2.03;;
3054;SDS011;1537;52.018;8.542;2022-11-03T02:14:19;7.47;;;2.87;;
3054;SDS011;1537;52.018;8.542;2022-11-03T02:17:43;6.87;;;3.50;;
3054;SDS011;1537;52.018;8.542;2022-11-03T02:21:12;7.33;;;2.27;;
3054;SDS011;1537;52.018;8.542;2022-11-03T02:24:48;7.20;;;2.93;;
3054;SDS011;1537;52.018;8.542;2022-11-03T02:28:17;7.90;;;2.83;;
3054;SDS011;1537;52.018;8.542;2022-11-03T02:31:44;7.37;;;2.70;;
3054;SDS011;1537;52.018;8.542;2022-11-03T02:35:12;14.03;;;2.50;;
3054;SDS011;1537;52.018;8.542;2022-11-03T02:38:44;10.40;;;2.80;;
3054;SDS011;1537;52.018;8.542;2022-11-03T02:42:10;10.90;;;3.33;;
3054;SDS011;1537;52.018;8.542;2022-11-03T02:45:37;6.00;;;2.60;;
3054;SDS011;1537;52.018;8.542;2022-11-03T02:49:02;12.97;;;4.47;;
3054;SDS011;1537;52.018;8.542;2022-11-03T02:52:33;10.33;;;3.53;;
3054;SDS011;1537;52.018;8.542;2022-11-03T02:55:59;10.17;;;4.40;;
3054;SDS011;1537;52.018;8.542;2022-11-03T02:59:27;8.27;;;2.63;;
3054;SDS011;1537;52.018;8.542;2022-11-03T03:02:59;6.90;;;2.80;;
3054;SDS011;1537;52.018;8.542;2022-11-03T03:06:31;12.03;;;3.90;;
3054;SDS011;1537;52.018;8.542;2022-11-03T03:09:59;8.73;;;2.90;;
3054;SDS011;1537;52.018;8.542;2022-11-03T03:13:26;14.70;;;3.70;;
3054;SDS011;1537;52.018;8.542;2022-11-03T03:16:51;16.63;;;3.33;;
3054;SDS011;1537;52.018;8.542;2022-11-03T03:20:23;6.87;;;2.97;;
3054;SDS011;1537;52.018;8.542;2022-11-03T03:24:12;12.20;;;2.77;;
3054;SDS011;1537;52.018;8.542;2022-11-03T03:27:41;8.90;;;3.80;;
3054;SDS011;1537;52.018;8.542;2022-11-03T03:31:09;12.10;;;3.13;;
3054;SDS011;1537;52.018;8.542;2022-11-03T03:34:36;11.40;;;2.63;;
3054;SDS011;1537;52.018;8.542;2022-11-03T03:38:06;6.80;;;3.03;;
3054;SDS011;1537;52.018;8.542;2022-11-03T03:41:35;12.67;;;3.10;;
3054;SDS011;1537;52.018;8.542;2022-11-03T03:45:00;8.63;;;3.10;;
3054;SDS011;1537;52.018;8.542;2022-11-03T03:48:24;10.67;;;3.53;;
3054;SDS011;1537;52.018;8.542;2022-11-03T03:51:48;13.00;;;3.97;;
3054;SDS011;1537;52.018;8.542;2022-11-03T03:55:14;10.23;;;3.10;;
3054;SDS011;1537;52.018;8.542;2022-11-03T03:58:41;10.30;;;3.53;;
3054;SDS011;1537;52.018;8.542;2022-11-03T04:02:04;10.80;;;3.90;;
3054;SDS011;1537;52.018;8.542;2022-11-03T04:05:28;9.60;;;3.27;;
3054;SDS011;1537;52.018;8.542;2022-11-03T04:08:52;7.60;;;2.83;;
3054;SDS011;1537;52.018;8.542;2022-11-03T04:12:17;6.90;;;2.67;;
3054;SDS011;1537;52.018;8.542;2022-11-03T04:15:58;9.63;;;3.10;;
3054;SDS011;1537;52.018;8.542;2022-11-03T04:19:39;6.83;;;4.07;;
3054;SDS011;1537;52.018;8.542;2022-11-03T04:23:20;13.23;;;3.70;;
3054;SDS011;1537;52.018;8.542;2022-11-03T04:26:44;10.73;;;2.90;;
3054;SDS011;1537;52.018;8.542;2022-11-03T04:30:12;11.17;;;4.20;;
3054;SDS011;1537;52.018;8.542;2022-11-03T04:33:37;11.63;;;3.17;;
3054;SDS011;1537;52.018;8.542;2022-11-03T04:37:03;13.13;;;4.00;;
3054;SDS011;1537;52.018;8.542;2022-11-03T04:40:31;9.83;;;3.10;;
3054;SDS011;1537;52.018;8.542;2022-11-03T04:43:54;12.23;;;4.00;;
3054;SDS011;1537;52.018;8.542;2022-11-03T04:47:20;12.10;;;3.20;;
3054;SDS011;1537;52.018;8.542;2022-11-03T04:50:44;8.63;;;3.93;;
3054;SDS011;1537;52.018;8.542;2022-11-03T04:54:13;9.33;;;3.67;;
3054;SDS011;1537;52.018;8.542;2022-11-03T04:57:40;10.80;;;3.97;;
3054;SDS011;1537;52.018;8.542;2022-11-03T05:01:05;8.40;;;3.43;;
3054;SDS011;1537;52.018;8.542;2022-11-03T05:04:35;16.23;;;3.60;;
3054;SDS011;1537;52.018;8.542;2022-11-03T05:07:59;9.10;;;4.00;;
3054;SDS011;1537;52.018;8.542;2022-11-03T05:11:25;10.23;;;3.77;;
3054;SDS011;1537;52.018;8.542;2022-11-03T05:14:55;7.70;;;3.67;;
3054;SDS011;1537;52.018;8.542;2022-11-03T05:18:20;10.43;;;3.83;;
3054;SDS011;1537;52.018;8.542;2022-11-03T05:21:49;21.17;;;4.07;;
3054;SDS011;1537;52.018;8.542;2022-11-03T05:25:24;11.27;;;4.00;;
3054;SDS011;1537;52.018;8.542;2022-11-03T05:28:57;10.13;;;3.30;;
3054;SDS011;1537;52.018;8.542;2022-11-03T05:32:24;7.33;;;3.63;;
3054;SDS011;1537;52.018;8.542;2022-11-03T05:35:50;6.07;;;3.67;;
3054;SDS011;1537;52.018;8.542;2022-11-03T05:39:21;12.17;;;3.23;;
3054;SDS011;1537;52.018;8.542;2022-11-03T05:42:50;8.93;;;3.27;;
3054;SDS011;1537;52.018;8.542;2022-11-03T05:46:18;12.20;;;4.93;;
3054;SDS011;1537;52.018;8.542;2022-11-03T05:49:42;6.60;;;3.13;;
3054;SDS011;1537;52.018;8.542;2022-11-03T05:53:11;13.03;;;3.57;;
3054;SDS011;1537;52.018;8.542;2022-11-03T05:56:51;12.30;;;4.33;;
3054;SDS011;1537;52.018;8.542;2022-11-03T06:00:20;10.57;;;3.60;;
3054;SDS011;1537;52.018;8.542;2022-11-03T06:03:50;8.63;;;3.30;;
3054;SDS011;1537;52.018;8.542;2022-11-03T06:07:15;9.13;;;4.03;;
3054;SDS011;1537;52.018;8.542;2022-11-03T06:10:45;10.57;;;4.10;;
3054;SDS011;1537;52.018;8.542;2022-11-03T06:14:16;7.77;;;4.40;;
3054;SDS011;1537;52.018;8.542;2022-11-03T06:17:45;9.70;;;3.53;;
3054;SDS011;1537;52.018;8.542;2022-11-03T06:21:11;13.77;;;4.40;;
3054;SDS011;1537;52.018;8.542;2022-11-03T06:24:41;11.20;;;4.50;;
3054;SDS011;1537;52.018;8.542;2022-11-03T06:28:07;9.43;;;3.60;;
3054;SDS011;1537;52.018;8.542;2022-11-03T06:31:38;8.70;;;3.60;;
3054;SDS011;1537;52.018;8.542;2022-11-03T06:35:02;7.73;;;4.37;;
3054;SDS011;1537;52.018;8.542;2022-11-03T06:38:27;13.10;;;4.23;;
3054;SDS011;1537;52.018;8.542;2022-11-03T06:41:52;9.53;;;4.73;;
3054;SDS011;1537;52.018;8.542;2022-11-03T06:45:17;6.20;;;3.37;;
3054;SDS011;1537;52.018;8.542;2022-11-03T06:48:43;10.60;;;3.73;;
3054;SDS011;1537;52.018;8.542;2022-11-03T06:52:13;12.47;;;4.43;;
3054;SDS011;1537;52.018;8.542;2022-11-03T06:55:45;14.27;;;4.00;;
3054;SDS011;1537;52.018;8.542;2022-11-03T06:59:09;11.50;;;3.90;;
3054;SDS011;1537;52.018;8.542;2022-11-03T07:02:48;10.03;;;4.23;;
3054;SDS011;1537;52.018;8.542;2022-11-03T07:06:19;8.63;;;3.33;;
3054;SDS011;1537;52.018;8.542;2022-11-03T07:09:48;13.80;;;4.20;;
3054;SDS011;1537;52.018;8.542;2022-11-03T07:13:13;8.17;;;3.57;;
3054;SDS011;1537;52.018;8.542;2022-11-03T07:16:40;10.60;;;4.10;;
3054;SDS011;1537;52.018;8.542;2022-11-03T07:20:08;12.13;;;3.50;;
3054;SDS011;1537;52.018;8.542;2022-11-03T07:23:36;12.17;;;3.63;;
3054;SDS011;1537;52.018;8.542;2022-11-03T07:27:14;8.80;;;4.07;;
3054;SDS011;1537;52.018;8.542;2022-11-03T07:30:42;12.13;;;3.83;;
3054;SDS011;1537;52.018;8.542;2022-11-03T07:34:08;8.57;;;3.47;;
3054;SDS011;1537;52.018;8.542;2022-11-03T07:37:36;6.57;;;3.33;;
3054;SDS011;1537;52.018;8.542;2022-11-03T07:41:01;8.83;;;3.60;;
3054;SDS011;1537;52.018;8.542;2022-11-03T07:44:24;11.30;;;4.13;;
3054;SDS011;1537;52.018;8.542;2022-11-03T07:47:49;9.47;;;3.40;;
3054;SDS011;1537;52.018;8.542;2022-11-03T07:51:14;9.80;;;3.17;;
3054;SDS011;1537;52.018;8.542;2022-11-03T07:54:42;10.10;;;2.90;;
3054;SDS011;1537;52.018;8.542;2022-11-03T07:58:14;13.13;;;3.80;;
3054;SDS011;1537;52.018;8.542;2022-11-03T08:01:42;10.53;;;3.40;;
3054;SDS011;1537;52.018;8.542;2022-11-03T08:05:09;8.57;;;3.23;;
3054;SDS011;1537;52.018;8.542;2022-11-03T08:08:33;8.67;;;3.80;;
3054;SDS011;1537;52.018;8.542;2022-11-03T08:11:56;17.60;;;4.10;;
3054;SDS011;1537;52.018;8.542;2022-11-03T08:15:22;9.20;;;4.47;;
3054;SDS011;1537;52.018;8.542;2022-11-03T08:18:46;11.20;;;3.30;;
3054;SDS011;1537;52.018;8.542;2022-11-03T08:22:10;21.67;;;3.70;;
3054;SDS011;1537;52.018;8.542;2022-11-03T08:25:34;10.07;;;4.03;;
3054;SDS011;1537;52.018;8.542;2022-11-03T08:28:57;8.23;;;3.07;;
3054;SDS011;1537;52.018;8.542;2022-11-03T08:32:25;8.40;;;3.53;;
3054;SDS011;1537;52.018;8.542;2022-11-03T08:35:49;10.43;;;3.40;;
3054;SDS011;1537;52.018;8.542;2022-11-03T08:39:13;11.10;;;4.30;;
3054;SDS011;1537;52.018;8.542;2022-11-03T08:42:39;13.87;;;4.67;;
3054;SDS011;1537;52.018;8.542;2022-11-03T08:46:03;6.77;;;3.17;;
3054;SDS011;1537;52.018;8.542;2022-11-03T08:49:39;7.93;;;3.30;;
3054;SDS011;1537;52.018;8.542;2022-11-03T08:53:03;11.50;;;3.10;;
3054;SDS011;1537;52.018;8.542;2022-11-03T08:56:27;10.17;;;4.47;;
3054;SDS011;1537;52.018;8.542;2022-11-03T08:59:51;10.47;;;3.27;;
3054;SDS011;1537;52.018;8.542;2022-11-03T09:03:15;10.50;;;3.93;;
3054;SDS011;1537;52.018;8.542;2022-11-03T09:06:41;10.27;;;4.30;;
3054;SDS011;1537;52.018;8.542;2022-11-03T09:10:05;10.63;;;3.70;;
3054;SDS011;1537;52.018;8.542;2022-11-03T09:13:37;13.40;;;4.90;;
3054;SDS011;1537;52.018;8.542;2022-11-03T09:17:01;11.23;;;3.70;;
3054;SDS011;1537;52.018;8.542;2022-11-03T09:20:25;11.13;;;3.63;;
3054;SDS011;1537;52.018;8.542;2022-11-03T09:23:50;9.80;;;3.30;;
3054;SDS011;1537;52.018;8.542;2022-11-03T09:27:14;8.90;;;4.00;;
3054;SDS011;1537;52.018;8.542;2022-11-03T09:30:38;10.50;;;3.80;;
3054;SDS011;1537;52.018;8.542;2022-11-03T09:34:01;11.10;;;3.33;;
3054;SDS011;1537;52.018;8.542;2022-11-03T09:37:25;11.03;;;3.83;;
3054;SDS011;1537;52.018;8.542;2022-11-03T09:40:50;8.73;;;3.53;;
3054;SDS011;1537;52.018;8.542;2022-11-03T09:44:14;7.23;;;2.93;;
3054;SDS011;1537;52.018;8.542;2022-11-03T09:47:38;14.13;;;3.60;;
3054;SDS011;1537;52.018;8.542;2022-11-03T09:51:04;6.03;;;2.90;;
3054;SDS011;1537;52.018;8.542;2022-11-03T09:54:31;12.00;;;4.60;;
3054;SDS011;1537;52.018;8.542;2022-11-03T09:57:58;8.17;;;3.37;;
3054;SDS011;1537;52.018;8.542;2022-11-03T10:01:24;9.83;;;3.50;;
3054;SDS011;1537;52.018;8.542;2022-11-03T10:04:48;11.90;;;4.30;;
3054;SDS011;1537;52.018;8.542;2022-11-03T10:08:19;10.73;;;3.83;;
3054;SDS011;1537;52.018;8.542;2022-11-03T10:11:45;11.90;;;3.60;;
3054;SDS011;1537;52.018;8.542;2022-11-03T10:15:13;6.97;;;2.80;;
3054;SDS011;1537;52.018;8.542;2022-11-03T10:18:39;11.10;;;3.63;;
3054;SDS011;1537;52.018;8.542;2022-11-03T10:22:23;11.63;;;3.50;;
3054;SDS011;1537;52.018;8.542;2022-11-03T10:26:09;7.90;;;3.53;;
3054;SDS011;1537;52.018;8.542;2022-11-03T10:29:35;11.33;;;3.20;;
3054;SDS011;1537;52.018;8.542;2022-11-03T10:33:03;8.57;;;3.70;;
3054;SDS011;1537;52.018;8.542;2022-11-03T10:37:03;6.83;;;3.20;;
3054;SDS011;1537;52.018;8.542;2022-11-03T10:40:33;13.53;;;3.97;;
3054;SDS011;1537;52.018;8.542;2022-11-03T10:44:16;7.00;;;2.43;;
3054;SDS011;1537;52.018;8.542;2022-11-03T10:47:40;10.60;;;4.40;;
3054;SDS011;1537;52.018;8.542;2022-11-03T10:51:10;9.27;;;4.00;;
3054;SDS011;1537;52.018;8.542;2022-11-03T10:54:34;10.20;;;4.60;;
3054;SDS011;1537;52.018;8.542;2022-11-03T10:58:02;11.87;;;4.30;;
3054;SDS011;1537;52.018;8.542;2022-11-03T11:01:27;9.67;;;3.73;;
3054;SDS011;1537;52.018;8.542;2022-11-03T11:04:53;9.33;;;3.63;;
3054;SDS011;1537;52.018;8.542;2022-11-03T11:08:23;7.47;;;3.50;;
3054;SDS011;1537;52.018;8.542;2022-11-03T11:12:02;23.63;;;4.57;;
3054;SDS011;1537;52.018;8.542;2022-11-03T11:15:34;9.57;;;3.00;;
3054;SDS011;1537;52.018;8.542;2022-11-03T11:19:01;7.37;;;3.53;;
3054;SDS011;1537;52.018;8.542;2022-11-03T11:22:25;10.47;;;3.67;;
3054;SDS011;1537;52.018;8.542;2022-11-03T11:29:37;11.87;;;3.73;;
3054;SDS011;1537;52.018;8.542;2022-11-03T11:33:11;10.13;;;3.83;;
3054;SDS011;1537;52.018;8.542;2022-11-03T11:36:37;10.40;;;5.23;;
3054;SDS011;1537;52.018;8.542;2022-11-03T11:40:02;7.70;;;3.20;;
3054;SDS011;1537;52.018;8.542;2022-11-03T11:43:34;11.43;;;3.80;;
3054;SDS011;1537;52.018;8.542;2022-11-03T11:46:59;10.57;;;4.00;;
3054;SDS011;1537;52.018;8.542;2022-11-03T11:50:27;11.30;;;3.53;;
3054;SDS011;1537;52.018;8.542;2022-11-03T11:53:52;10.27;;;3.03;;
3054;SDS011;1537;52.018;8.542;2022-11-03T11:57:56;8.70;;;3.70;;
3054;SDS011;1537;52.018;8.542;2022-11-03T12:01:41;13.97;;;4.73;;
3054;SDS011;1537;52.018;8.542;2022-11-03T12:05:16;7.27;;;3.60;;
3054;SDS011;1537;52.018;8.542;2022-11-03T12:08:41;9.10;;;3.40;;
3054;SDS011;1537;52.018;8.542;2022-11-03T12:12:06;7.60;;;3.10;;
3054;SDS011;1537;52.018;8.542;2022-11-03T12:15:49;12.40;;;3.80;;
3054;SDS011;1537;52.018;8.542;2022-11-03T12:19:36;10.93;;;3.67;;
3054;SDS011;1537;52.018;8.542;2022-11-03T12:23:03;9.23;;;3.20;;
3054;SDS011;1537;52.018;8.542;2022-11-03T12:26:39;8.00;;;3.50;;
3054;SDS011;1537;52.018;8.542;2022-11-03T12:30:03;9.53;;;3.10;;
3054;SDS011;1537;52.018;8.542;2022-11-03T12:33:29;9.17;;;4.00;;
3054;SDS011;1537;52.018;8.542;2022-11-03T12:36:53;12.20;;;3.70;;
3054;SDS011;1537;52.018;8.542;2022-11-03T12:40:18;9.73;;;4.40;;
3054;SDS011;1537;52.018;8.542;2022-11-03T12:43:43;9.43;;;3.73;;
3054;SDS011;1537;52.018;8.542;2022-11-03T12:47:07;9.57;;;3.33;;
3054;SDS011;1537;52.018;8.542;2022-11-03T12:50:31;9.50;;;3.60;;
3054;SDS011;1537;52.018;8.542;2022-11-03T12:53:54;13.53;;;4.63;;
3054;SDS011;1537;52.018;8.542;2022-11-03T12:57:20;7.57;;;3.77;;
3054;SDS011;1537;52.018;8.542;2022-11-03T13:00:43;8.60;;;3.60;;
3054;SDS011;1537;52.018;8.542;2022-11-03T13:04:15;11.33;;;4.10;;
3054;SDS011;1537;52.018;8.542;2022-11-03T13:07:39;12.97;;;3.33;;
3054;SDS011;1537;52.018;8.542;2022-11-03T13:11:03;9.17;;;2.93;;
3054;SDS011;1537;52.018;8.542;2022-11-03T13:14:49;8.93;;;3.77;;
3054;SDS011;1537;52.018;8.542;2022-11-03T13:18:12;5.10;;;2.97;;
3054;SDS011;1537;52.018;8.542;2022-11-03T13:21:36;10.17;;;4.23;;
3054;SDS011;1537;52.018;8.542;2022-11-03T13:25:00;7.97;;;3.83;;
3054;SDS011;1537;52.018;8.542;2022-11-03T13:28:24;12.60;;;3.10;;
3054;SDS011;1537;52.018;8.542;2022-11-03T13:31:49;10.20;;;3.57;;
3054;SDS011;1537;52.018;8.542;2022-11-03T13:35:12;7.70;;;3.57;;
3054;SDS011;1537;52.018;8.542;2022-11-03T13:38:37;12.10;;;3.93;;
3054;SDS011;1537;52.018;8.542;2022-11-03T13:42:01;7.07;;;3.40;;
3054;SDS011;1537;52.018;8.542;2022-11-03T13:45:24;10.20;;;3.73;;
3054;SDS011;1537;52.018;8.542;2022-11-03T13:48:49;7.50;;;3.17;;
3054;SDS011;1537;52.018;8.542;2022-11-03T13:52:33;8.20;;;2.90;;
3054;SDS011;1537;52.018;8.542;2022-11-03T13:55:57;9.43;;;3.40;;
3054;SDS011;1537;52.018;8.542;2022-11-03T13:59:29;4.90;;;2.37;;
3054;SDS011;1537;52.018;8.542;2022-11-03T14:02:53;6.07;;;3.30;;
3054;SDS011;1537;52.018;8.542;2022-11-03T14:06:38;6.80;;;2.60;;
3054;SDS011;1537;52.018;8.542;2022-11-03T14:10:02;9.77;;;2.77;;
3054;SDS011;1537;52.018;8.542;2022-11-03T14:13:26;9.73;;;3.37;;
3054;SDS011;1537;52.018;8.542;2022-11-03T14:16:49;8.90;;;3.33;;
3054;SDS011;1537;52.018;8.542;2022-11-03T14:20:13;11.23;;;3.50;;
3054;SDS011;1537;52.018;8.542;2022-11-03T14:23:38;7.13;;;2.67;;
3054;SDS011;1537;52.018;8.542;2022-11-03T14:27:02;7.60;;;2.53;;
3054;SDS011;1537;52.018;8.542;2022-11-03T14:30:26;6.20;;;2.80;;
3054;SDS011;1537;52.018;8.542;2022-11-03T14:33:49;10.90;;;3.63;;
3054;SDS011;1537;52.018;8.542;2022-11-03T14:37:13;9.90;;;3.70;;
3054;SDS011;1537;52.018;8.542;2022-11-03T14:40:39;10.40;;;3.83;;
3054;SDS011;1537;52.018;8.542;2022-11-03T14:44:20;7.53;;;2.63;;
3054;SDS011;1537;52.018;8.542;2022-11-03T14:47:44;9.57;;;3.27;;
3054;SDS011;1537;52.018;8.542;2022-11-03T14:51:08;6.53;;;2.83;;
3054;SDS011;1537;52.018;8.542;2022-11-03T14:54:32;11.43;;;2.90;;
3054;SDS011;1537;52.018;8.542;2022-11-03T14:57:58;10.10;;;4.40;;
3054;SDS011;1537;52.018;8.542;2022-11-03T15:01:21;7.03;;;3.70;;
3054;SDS011;1537;52.018;8.542;2022-11-03T15:04:45;8.87;;;3.40;;
3054;SDS011;1537;52.018;8.542;2022-11-03T15:08:09;6.70;;;3.47;;
3054;SDS011;1537;52.018;8.542;2022-11-03T15:11:33;8.47;;;2.90;;
3054;SDS011;1537;52.018;8.542;2022-11-03T15:14:59;6.00;;;2.60;;
3054;SDS011;1537;52.018;8.542;2022-11-03T15:18:23;7.13;;;3.10;;
3054;SDS011;1537;52.018;8.542;2022-11-03T15:21:47;8.97;;;5.03;;
3054;SDS011;1537;52.018;8.542;2022-11-03T15:25:10;9.10;;;3.50;;
3054;SDS011;1537;52.018;8.542;2022-11-03T15:28:34;7.83;;;2.80;;
3054;SDS011;1537;52.018;8.542;2022-11-03T15:31:59;7.70;;;3.27;;
3054;SDS011;1537;52.018;8.542;2022-11-03T15:35:23;7.83;;;2.90;;
3054;SDS011;1537;52.018;8.542;2022-11-03T15:38:47;7.47;;;2.50;;
3054;SDS011;1537;52.018;8.542;2022-11-03T15:42:10;6.73;;;2.87;;
3054;SDS011;1537;52.018;8.542;2022-11-03T15:45:34;5.53;;;2.93;;
3054;SDS011;1537;52.018;8.542;2022-11-03T15:48:59;8.90;;;3.00;;
3054;SDS011;1537;52.018;8.542;2022-11-03T15:52:23;4.90;;;2.77;;
3054;SDS011;1537;52.018;8.542;2022-11-03T15:55:47;8.27;;;3.40;;
3054;SDS011;1537;52.018;8.542;2022-11-03T15:59:11;7.40;;;3.20;;
3054;SDS011;1537;52.018;8.542;2022-11-03T16:02:34;6.20;;;3.10;;
3054;SDS011;1537;52.018;8.542;2022-11-03T16:06:04;9.97;;;3.30;;
3054;SDS011;1537;52.018;8.542;2022-11-03T16:09:29;7.27;;;4.70;;
3054;SDS011;1537;52.018;8.542;2022-11-03T16:12:52;5.13;;;2.67;;
3054;SDS011;1537;52.018;8.542;2022-11-03T16:16:16;9.17;;;2.63;;
3054;SDS011;1537;52.018;8.542;2022-11-03T16:19:40;6.43;;;2.80;;
3054;SDS011;1537;52.018;8.542;2022-11-03T16:23:04;7.00;;;3.03;;
3054;SDS011;1537;52.018;8.542;2022-11-03T16:26:28;7.20;;;3.20;;
3054;SDS011;1537;52.018;8.542;2022-11-03T16:29:53;6.10;;;2.97;;
3054;SDS011;1537;52.018;8.542;2022-11-03T16:33:16;10.73;;;3.07;;
3054;SDS011;1537;52.018;8.542;2022-11-03T16:36:40;7.50;;;3.37;;
3054;SDS011;1537;52.018;8.542;2022-11-03T16:40:05;6.53;;;2.53;;
3054;SDS011;1537;52.018;8.542;2022-11-03T16:43:37;5.70;;;2.73;;
3054;SDS011;1537;52.018;8.542;2022-11-03T16:47:00;7.43;;;2.70;;
3054;SDS011;1537;52.018;8.542;2022-11-03T16:50:24;8.23;;;3.33;;
3054;SDS011;1537;52.018;8.542;2022-11-03T16:53:48;6.33;;;2.60;;
3054;SDS011;1537;52.018;8.542;2022-11-03T16:57:14;10.43;;;3.13;;
3054;SDS011;1537;52.018;8.542;2022-11-03T17:00:38;9.93;;;3.87;;
3054;SDS011;1537;52.018;8.542;2022-11-03T17:04:02;5.07;;;2.70;;
3054;SDS011;1537;52.018;8.542;2022-11-03T17:07:26;6.67;;;3.20;;
3054;SDS011;1537;52.018;8.542;2022-11-03T17:10:50;9.93;;;3.10;;
3054;SDS011;1537;52.018;8.542;2022-11-03T17:14:14;6.63;;;3.70;;
3054;SDS011;1537;52.018;8.542;2022-11-03T17:17:38;9.33;;;3.50;;
3054;SDS011;1537;52.018;8.542;2022-11-03T17:21:02;5.30;;;2.83;;
3054;SDS011;1537;52.018;8.542;2022-11-03T17:24:26;9.63;;;3.20;;
3054;SDS011;1537;52.018;8.542;2022-11-03T17:27:50;6.17;;;3.33;;
3054;SDS011;1537;52.018;8.542;2022-11-03T17:31:17;5.60;;;3.00;;
3054;SDS011;1537;52.018;8.542;2022-11-03T17:34:41;6.50;;;3.10;;
3054;SDS011;1537;52.018;8.542;2022-11-03T17:38:05;7.77;;;3.53;;
3054;SDS011;1537;52.018;8.542;2022-11-03T17:41:34;5.50;;;2.80;;
3054;SDS011;1537;52.018;8.542;2022-11-03T17:44:58;5.40;;;3.30;;
3054;SDS011;1537;52.018;8.542;2022-11-03T17:48:24;6.23;;;3.13;;
3054;SDS011;1537;52.018;8.542;2022-11-03T17:51:47;9.20;;;3.77;;
3054;SDS011;1537;52.018;8.542;2022-11-03T17:55:15;7.73;;;3.80;;
3054;SDS011;1537;52.018;8.542;2022-11-03T17:58:40;5.00;;;3.00;;
3054;SDS011;1537;52.018;8.542;2022-11-03T18:02:09;15.37;;;4.07;;
3054;SDS011;1537;52.018;8.542;2022-11-03T18:05:41;10.40;;;4.67;;
3054;SDS011;1537;52.018;8.542;2022-11-03T18:09:05;7.53;;;4.80;;
3054;SDS011;1537;52.018;8.542;2022-11-03T18:12:30;7.67;;;5.10;;
3054;SDS011;1537;52.018;8.542;2022-11-03T18:16:15;8.97;;;4.73;;
3054;SDS011;1537;52.018;8.542;2022-11-03T18:19:38;7.13;;;4.67;;
3054;SDS011;1537;52.018;8.542;2022-11-03T18:23:09;10.30;;;5.67;;
3054;SDS011;1537;52.018;8.542;2022-11-03T18:26:37;8.93;;;4.40;;
3054;SDS011;1537;52.018;8.542;2022-11-03T18:30:00;7.60;;;4.97;;
3054;SDS011;1537;52.018;8.542;2022-11-03T18:33:25;8.70;;;4.73;;
3054;SDS011;1537;52.018;8.542;2022-11-03T18:36:53;7.53;;;5.60;;
3054;SDS011;1537;52.018;8.542;2022-11-03T18:40:18;8.77;;;5.63;;
3054;SDS011;1537;52.018;8.542;2022-11-03T18:43:42;5.73;;;5.10;;
3054;SDS011;1537;52.018;8.542;2022-11-03T18:47:05;8.70;;;7.90;;
3054;SDS011;1537;52.018;8.542;2022-11-03T18:50:29;9.30;;;8.27;;
3054;SDS011;1537;52.018;8.542;2022-11-03T18:53:53;9.53;;;8.57;;
3054;SDS011;1537;52.018;8.542;2022-11-03T18:57:19;10.40;;;8.70;;
3054;SDS011;1537;52.018;8.542;2022-11-03T19:00:44;9.60;;;8.80;;
3054;SDS011;1537;52.018;8.542;2022-11-03T19:04:08;10.63;;;8.83;;
3054;SDS011;1537;52.018;8.542;2022-11-03T19:07:35;8.83;;;8.03;;
3054;SDS011;1537;52.018;8.542;2022-11-03T19:11:00;12.33;;;8.97;;
3054;SDS011;1537;52.018;8.542;2022-11-03T19:14:26;11.30;;;8.57;;
3054;SDS011;1537;52.018;8.542;2022-11-03T19:17:53;12.63;;;7.80;;
3054;SDS011;1537;52.018;8.542;2022-11-03T19:21:19;8.73;;;7.47;;
3054;SDS011;1537;52.018;8.542;2022-11-03T19:24:44;10.10;;;7.10;;
3054;SDS011;1537;52.018;8.542;2022-11-03T19:28:09;8.90;;;7.37;;
3054;SDS011;1537;52.018;8.542;2022-11-03T19:31:36;9.80;;;6.60;;
3054;SDS011;1537;52.018;8.542;2022-11-03T19:35:04;8.67;;;7.13;;
3054;SDS011;1537;52.018;8.542;2022-11-03T19:38:29;14.83;;;8.43;;
3054;SDS011;1537;52.018;8.542;2022-11-03T19:41:53;8.83;;;7.97;;
3054;SDS011;1537;52.018;8.542;2022-11-03T19:45:36;9.50;;;8.60;;
3054;SDS011;1537;52.018;8.542;2022-11-03T19:49:02;9.80;;;8.27;;
3054;SDS011;1537;52.018;8.542;2022-11-03T19:52:27;8.17;;;7.37;;
3054;SDS011;1537;52.018;8.542;2022-11-03T19:55:52;10.27;;;8.17;;
3054;SDS011;1537;52.018;8.542;2022-11-03T19:59:16;8.30;;;7.40;;
3054;SDS011;1537;52.018;8.542;2022-11-03T20:02:40;10.20;;;7.07;;
3054;SDS011;1537;52.018;8.542;2022-11-03T20:06:06;8.43;;;7.23;;
3054;SDS011;1537;52.018;8.542;2022-11-03T20:09:32;8.30;;;7.50;;
3054;SDS011;1537;52.018;8.542;2022-11-03T20:12:56;10.10;;;8.77;;
3054;SDS011;1537;52.018;8.542;2022-11-03T20:16:23;9.50;;;8.60;;
3054;SDS011;1537;52.018;8.542;2022-11-03T20:19:47;9.07;;;8.13;;
3054;SDS011;1537;52.018;8.542;2022-11-03T20:23:15;9.87;;;7.70;;
3054;SDS011;1537;52.018;8.542;2022-11-03T20:26:41;9.30;;;8.40;;
3054;SDS011;1537;52.018;8.542;2022-11-03T20:30:04;11.00;;;8.73;;
3054;SDS011;1537;52.018;8.542;2022-11-03T20:33:31;8.50;;;7.70;;
3054;SDS011;1537;52.018;8.542;2022-11-03T20:36:55;11.60;;;7.80;;
3054;SDS011;1537;52.018;8.542;2022-11-03T20:40:29;9.70;;;8.10;;
3054;SDS011;1537;52.018;8.542;2022-11-03T20:43:54;9.67;;;6.67;;
3054;SDS011;1537;52.018;8.542;2022-11-03T20:47:19;9.03;;;7.00;;
3054;SDS011;1537;52.018;8.542;2022-11-03T20:50:43;10.70;;;9.60;;
3054;SDS011;1537;52.018;8.542;2022-11-03T20:54:09;13.53;;;10.93;;
3054;SDS011;1537;52.018;8.542;2022-11-03T20:57:38;11.50;;;10.60;;
3054;SDS011;1537;52.018;8.542;2022-11-03T21:01:02;12.87;;;11.57;;
3054;SDS011;1537;52.018;8.542;2022-11-03T21:04:28;15.33;;;10.50;;
3054;SDS011;1537;52.018;8.542;2022-11-03T21:07:53;17.03;;;13.20;;
3054;SDS011;1537;52.018;8.542;2022-11-03T21:11:18;14.80;;;13.67;;
3054;SDS011;1537;52.018;8.542;2022-11-03T21:14:49;13.40;;;12.47;;
3054;SDS011;1537;52.018;8.542;2022-11-03T21:18:31;14.67;;;13.30;;
3054;SDS011;1537;52.018;8.542;2022-11-03T21:22:12;12.63;;;11.43;;